KAXS

Details ICAO KAXS
Name ALTUS QUARTZ MOUNTAIN RGNL
Region United States
Timezone America/Chicago (UTC-6.0)
Plans Departing 5
Arriving 3
Stats Elevation 1,433 ft / 437 m (AMSL)
Location 34.698782° -99.338100°
Runways 1
Magnetic Variation 4.814° E
Sunrise 2017-12-17 13:40:00 UTC / 2017-12-17 07:40:00 Local
Sunset 2017-12-17 23:29:57 UTC / 2017-12-17 17:29:57 Local
Advertisement - Login to hide

Runways

ID Width Length Bearing (true) Bearing (mag) Surface Threshold Offset Overrun Length
17 75 ft / 23 m 5,515 ft / 1,681 m 180.00° 175.19° Concrete 0 ft / 0 m 0 ft / 0 m
35 75 ft / 23 m 5,515 ft / 1,681 m 0.00° 355.19° Concrete 0 ft / 0 m 0 ft / 0 m

Map

Weather


0- 5 10 15 20 25 30 35+ Temperature / ° C

Clouds and Precipitation
Forecast for 2017-12-17 12:00 UTC. Updated an hour ago

Ground ~20,000 ft ~40,000 ft Winds

METAR

KAXS 171015Z AUTO 15009KT 10SM OVC018 08/04 A2997 RMK AO2 T00760044

TAF

Not found

Frequencies

Recorded 118.82 MHz AWOS 3
Approach 125.10 MHz APP/DEP
Unicom 122.80 MHz CTAF/UNICOM
Warning: Do not use this data for real-world aviation or navigation. No guarantee of current accuracy is given.